createdAt,value
2018-03-19T00:00:13.461Z,46.35
2018-03-19T00:01:13.547Z,46.02
2018-03-19T00:02:13.460Z,46.20
2018-03-19T00:03:13.522Z,46.35
2018-03-19T00:04:13.540Z,46.65
2018-03-19T00:05:13.465Z,47.56
2018-03-19T00:06:13.565Z,48.08
2018-03-19T00:07:13.464Z,46.98
2018-03-19T00:08:13.438Z,47.31
2018-03-19T00:09:13.462Z,46.78
2018-03-19T00:10:13.548Z,47.61
2018-03-19T00:11:13.440Z,46.90
2018-03-19T00:12:13.505Z,46.45
2018-03-19T00:13:13.470Z,46.93
2018-03-19T00:14:13.508Z,47.63
2018-03-19T00:15:13.447Z,47.58
2018-03-19T00:16:13.530Z,48.21
2018-03-19T00:17:13.443Z,48.44
2018-03-19T00:18:13.507Z,48.51
2018-03-19T00:19:13.438Z,49.22
2018-03-19T00:20:13.507Z,50.18
2018-03-19T00:21:13.514Z,48.86
2018-03-19T00:22:13.476Z,48.36
2018-03-19T00:23:13.561Z,49.06
2018-03-19T00:24:13.476Z,47.96
2018-03-19T00:25:13.514Z,47.98
2018-03-19T00:26:13.472Z,48.99
2018-03-19T00:27:13.557Z,49.19
2018-03-19T00:28:13.556Z,47.88
2018-03-19T00:29:13.592Z,48.06
2018-03-19T00:30:13.517Z,47.71
2018-03-19T00:31:13.583Z,47.45
2018-03-19T00:32:13.543Z,47.98
2018-03-19T00:33:13.526Z,48.66
2018-03-19T00:34:13.568Z,48.74
2018-03-19T00:35:13.577Z,48.99
2018-03-19T00:36:13.570Z,48.66
2018-03-19T00:37:13.559Z,48.36
2018-03-19T00:38:13.516Z,49.34
2018-03-19T00:39:13.575Z,49.72
2018-03-19T00:40:13.526Z,48.26
2018-03-19T00:41:13.492Z,48.81
2018-03-19T00:42:13.465Z,48.97
2018-03-19T00:43:13.526Z,48.99
2018-03-19T00:44:13.533Z,48.61
2018-03-19T00:45:13.486Z,48.14
2018-03-19T00:46:13.465Z,48.03
2018-03-19T00:47:13.524Z,47.18
2018-03-19T00:48:13.576Z,47.28
2018-03-19T00:49:13.490Z,48.28
2018-03-19T00:50:13.460Z,48.69
2018-03-19T00:51:13.574Z,48.99
2018-03-19T00:52:13.488Z,48.92
2018-03-19T00:53:13.494Z,48.16
2018-03-19T00:54:13.534Z,48.54
2018-03-19T00:55:13.583Z,48.16
2018-03-19T00:56:13.505Z,48.23
2018-03-19T00:57:13.576Z,48.61
2018-03-19T00:58:13.471Z,48.06
2018-03-19T00:59:13.583Z,48.26
2018-03-19T01:00:13.466Z,48.26
2018-03-19T01:01:13.598Z,47.36
2018-03-19T01:02:13.593Z,47.33
2018-03-19T01:03:13.563Z,47.68
2018-03-19T01:04:13.561Z,48.21
2018-03-19T01:05:13.544Z,48.92
2018-03-19T01:06:13.499Z,49.29
2018-03-19T01:07:13.555Z,46.93
2018-03-19T01:08:13.468Z,47.43
2018-03-19T01:09:13.535Z,47.65
2018-03-19T01:10:13.476Z,48.14
2018-03-19T01:11:13.592Z,49.06
2018-03-19T01:12:13.481Z,48.46
2018-03-19T01:13:13.601Z,47.91
2018-03-19T01:14:13.499Z,48.64
2018-03-19T01:15:13.499Z,48.61
2018-03-19T01:16:13.569Z,48.79
2018-03-19T01:17:13.540Z,49.72
2018-03-19T01:18:13.594Z,49.80
2018-03-19T01:19:13.548Z,48.28
2018-03-19T01:20:13.479Z,48.86
2018-03-19T01:21:13.485Z,48.14
2018-03-19T01:22:13.592Z,48.59
2018-03-19T01:23:13.510Z,48.31
2018-03-19T01:24:13.514Z,47.33
2018-03-19T01:25:13.604Z,48.01
2018-03-19T01:26:13.543Z,49.17
2018-03-19T01:27:13.596Z,49.64
2018-03-19T01:28:13.559Z,48.97
2018-03-19T01:29:13.607Z,49.69
2018-03-19T01:30:13.547Z,49.37
2018-03-19T01:31:13.612Z,49.60
2018-03-19T01:32:13.576Z,49.34
2018-03-19T01:33:13.550Z,49.37
2018-03-19T01:34:13.491Z,49.42
2018-03-19T01:35:13.530Z,49.97
2018-03-19T01:36:13.611Z,50.15
2018-03-19T01:37:13.599Z,50.91
2018-03-19T01:38:13.514Z,51.06
2018-03-19T01:39:13.557Z,49.87
2018-03-19T01:40:13.498Z,50.88
2018-03-19T01:41:13.552Z,49.80
2018-03-19T01:42:13.608Z,49.95
2018-03-19T01:43:13.500Z,50.45
2018-03-19T01:44:13.610Z,51.41
2018-03-19T01:45:13.525Z,50.58
2018-03-19T01:46:13.557Z,50.78
2018-03-19T01:47:13.558Z,49.90
2018-03-19T01:48:13.562Z,50.58
2018-03-19T01:49:13.569Z,49.69
2018-03-19T01:50:13.564Z,49.92
2018-03-19T01:51:13.563Z,49.60
2018-03-19T01:52:13.533Z,50.45
2018-03-19T01:53:13.617Z,49.80
2018-03-19T01:54:13.533Z,49.64
2018-03-19T01:55:13.610Z,50.71
2018-03-19T01:56:13.588Z,51.29
2018-03-19T01:57:13.612Z,51.51
2018-03-19T01:58:13.525Z,51.84
2018-03-19T01:59:13.542Z,52.50
2018-03-19T02:00:13.562Z,52.70
2018-03-19T02:01:13.536Z,53.26
2018-03-19T02:02:13.627Z,51.77
2018-03-19T02:03:13.621Z,52.07
2018-03-19T02:04:13.504Z,51.77
2018-03-19T02:05:13.632Z,52.27
2018-03-19T02:06:13.542Z,52.68
2018-03-19T02:07:13.568Z,52.04
2018-03-19T02:08:13.618Z,52.15
2018-03-19T02:09:13.600Z,52.40
2018-03-19T02:10:13.548Z,53.06
2018-03-19T02:11:13.626Z,52.70
2018-03-19T02:12:13.578Z,52.45
2018-03-19T02:13:13.543Z,52.30
2018-03-19T02:14:13.581Z,52.48
2018-03-19T02:15:13.512Z,51.82
2018-03-19T02:16:13.604Z,52.17
2018-03-19T02:17:13.538Z,51.69
2018-03-19T02:18:13.633Z,51.44
2018-03-19T02:19:13.626Z,51.82
2018-03-19T02:20:13.523Z,51.77
2018-03-19T02:21:13.521Z,52.48
2018-03-19T02:22:13.573Z,51.66
2018-03-19T02:23:13.630Z,52.37
2018-03-19T02:24:13.523Z,52.90
2018-03-19T02:25:13.518Z,53.67
2018-03-19T02:26:13.517Z,53.62
2018-03-19T02:27:13.637Z,51.84
2018-03-19T02:28:13.634Z,51.95
2018-03-19T02:29:13.563Z,52.12
2018-03-19T02:30:13.617Z,51.57
2018-03-19T02:31:13.552Z,51.71
2018-03-19T02:32:13.617Z,51.74
2018-03-19T02:33:13.643Z,50.91
2018-03-19T02:34:13.598Z,51.21
2018-03-19T02:35:13.654Z,51.84
2018-03-19T02:36:13.639Z,50.68
2018-03-19T02:37:13.524Z,50.55
2018-03-19T02:38:13.599Z,50.45
2018-03-19T02:39:13.637Z,50.50
2018-03-19T02:40:13.548Z,51.64
2018-03-19T02:41:13.620Z,50.50
2018-03-19T02:42:13.536Z,51.33
2018-03-19T02:43:13.606Z,51.06
2018-03-19T02:44:13.646Z,51.89
2018-03-19T02:45:13.553Z,51.01
2018-03-19T02:46:13.641Z,50.96
2018-03-19T02:47:13.648Z,51.79
2018-03-19T02:48:13.596Z,51.92
2018-03-19T02:49:13.647Z,52.81
2018-03-19T02:50:13.555Z,52.20
2018-03-19T02:51:13.650Z,52.73
2018-03-19T02:52:13.603Z,52.30
2018-03-19T02:53:13.608Z,52.70
2018-03-19T02:54:13.658Z,52.70
2018-03-19T02:55:13.606Z,53.09
2018-03-19T02:56:13.537Z,52.30
2018-03-19T02:57:13.570Z,52.88
2018-03-19T02:58:13.656Z,52.60
2018-03-19T02:59:13.603Z,52.27
2018-03-19T03:00:13.542Z,52.73
2018-03-19T03:01:13.575Z,53.64
2018-03-19T03:02:13.537Z,54.20
2018-03-19T03:03:13.613Z,52.32
2018-03-19T03:04:13.629Z,52.90
2018-03-19T03:05:13.546Z,53.39
2018-03-19T03:06:13.563Z,53.44
2018-03-19T03:07:13.667Z,53.95
2018-03-19T03:08:13.552Z,53.62
2018-03-19T03:09:13.550Z,52.83
2018-03-19T03:10:13.632Z,53.39
2018-03-19T03:11:13.571Z,53.64
2018-03-19T03:12:13.610Z,53.18
2018-03-19T03:13:13.637Z,53.09
2018-03-19T03:14:13.612Z,53.59
2018-03-19T03:15:13.553Z,52.68
2018-03-19T03:16:13.572Z,52.45
2018-03-19T03:17:13.661Z,53.14
2018-03-19T03:18:13.548Z,53.84
2018-03-19T03:19:13.620Z,53.72
2018-03-19T03:20:13.663Z,54.02
2018-03-19T03:21:13.552Z,54.00
2018-03-19T03:22:13.588Z,54.02
2018-03-19T03:23:13.671Z,53.95
2018-03-19T03:24:13.678Z,53.49
2018-03-19T03:25:13.668Z,53.77
2018-03-19T03:26:13.677Z,53.11
2018-03-19T03:27:13.590Z,53.09
2018-03-19T03:28:13.661Z,53.16
2018-03-19T03:29:13.664Z,53.47
2018-03-19T03:30:13.633Z,52.45
2018-03-19T03:31:13.622Z,53.72
2018-03-19T03:32:13.648Z,54.58
2018-03-19T03:33:13.565Z,53.51
2018-03-19T03:34:13.583Z,53.56
2018-03-19T03:35:13.681Z,54.04
2018-03-19T03:36:13.564Z,54.50
2018-03-19T03:37:13.626Z,54.86
2018-03-19T03:38:13.568Z,55.72
2018-03-19T03:39:13.595Z,54.58
2018-03-19T03:40:13.675Z,54.96
2018-03-19T03:41:13.680Z,54.30
2018-03-19T03:42:13.565Z,54.50
2018-03-19T03:43:13.637Z,54.37
2018-03-19T03:44:13.679Z,54.81
2018-03-19T03:45:13.688Z,54.58
2018-03-19T03:46:13.633Z,56.16
2018-03-19T03:47:13.677Z,54.94
2018-03-19T03:48:13.693Z,54.91
2018-03-19T03:49:13.638Z,55.70
2018-03-19T03:50:13.600Z,54.33
2018-03-19T03:51:13.575Z,54.28
2018-03-19T03:52:13.567Z,54.61
2018-03-19T03:53:13.693Z,54.71
2018-03-19T03:54:13.687Z,54.41
2018-03-19T03:55:13.686Z,54.68
2018-03-19T03:56:13.576Z,54.43
2018-03-19T03:57:13.579Z,54.61
2018-03-19T03:58:13.692Z,54.20
2018-03-19T03:59:13.691Z,54.20
2018-03-19T04:00:13.572Z,54.28
2018-03-19T04:01:13.602Z,54.76
2018-03-19T04:02:13.684Z,55.14
2018-03-19T04:03:13.584Z,55.60
2018-03-19T04:04:13.705Z,55.65
2018-03-19T04:05:13.580Z,56.00
2018-03-19T04:06:13.583Z,56.67
2018-03-19T04:07:13.688Z,56.80
2018-03-19T04:08:13.695Z,56.44
2018-03-19T04:09:13.678Z,56.65
2018-03-19T04:10:13.611Z,56.69
2018-03-19T04:11:13.611Z,57.97
2018-03-19T04:12:13.655Z,57.48
2018-03-19T04:13:13.658Z,57.66
2018-03-19T04:14:13.657Z,57.92
2018-03-19T04:15:13.708Z,58.07
2018-03-19T04:16:13.652Z,58.04
2018-03-19T04:17:13.707Z,57.97
2018-03-19T04:18:13.661Z,58.94
2018-03-19T04:19:13.591Z,58.68
2018-03-19T04:20:13.612Z,58.64
2018-03-19T04:21:13.620Z,58.66
2018-03-19T04:22:13.622Z,59.76
2018-03-19T04:23:13.626Z,59.97
2018-03-19T04:24:13.629Z,60.12
2018-03-19T04:25:13.663Z,59.15
2018-03-19T04:26:13.663Z,59.37
2018-03-19T04:27:13.712Z,57.56
2018-03-19T04:28:13.628Z,58.76
2018-03-19T04:29:13.600Z,57.51
2018-03-19T04:30:13.662Z,56.67
2018-03-19T04:31:13.671Z,56.67
2018-03-19T04:32:13.687Z,56.08
2018-03-19T04:33:13.658Z,56.41
2018-03-19T04:34:13.703Z,56.87
2018-03-19T04:35:13.595Z,56.74
2018-03-19T04:36:13.690Z,57.28
2018-03-19T04:37:13.719Z,56.80
2018-03-19T04:38:13.690Z,56.52
2018-03-19T04:39:13.714Z,56.61
2018-03-19T04:40:13.626Z,56.85
2018-03-19T04:41:13.607Z,56.72
2018-03-19T04:42:13.693Z,56.93
2018-03-19T04:43:13.677Z,56.82
2018-03-19T04:44:13.633Z,56.80
2018-03-19T04:45:13.682Z,57.51
2018-03-19T04:46:13.715Z,57.89
2018-03-19T04:47:13.636Z,58.25
2018-03-19T04:48:13.604Z,57.97
2018-03-19T04:49:13.696Z,57.74
2018-03-19T04:50:13.642Z,56.95
2018-03-19T04:51:13.694Z,57.51
2018-03-19T04:52:13.634Z,57.74
2018-03-19T04:53:13.644Z,58.79
2018-03-19T04:54:13.701Z,59.25
2018-03-19T04:55:13.642Z,58.79
2018-03-19T04:56:13.616Z,57.76
2018-03-19T04:57:13.700Z,57.21
2018-03-19T04:58:13.702Z,57.13
2018-03-19T04:59:13.723Z,58.07
2018-03-19T05:00:13.735Z,58.46
2018-03-19T05:01:13.681Z,57.64
2018-03-19T05:02:13.705Z,57.64
2018-03-19T05:03:13.651Z,57.46
2018-03-19T05:04:13.639Z,57.97
2018-03-19T05:05:13.680Z,58.35
2018-03-19T05:06:13.733Z,56.90
2018-03-19T05:07:13.619Z,57.15
2018-03-19T05:08:13.650Z,57.38
2018-03-19T05:09:13.682Z,56.93
2018-03-19T05:10:13.646Z,57.08
2018-03-19T05:11:13.780Z,57.46
2018-03-19T05:12:13.711Z,57.66
2018-03-19T05:13:13.713Z,58.04
2018-03-19T05:14:13.649Z,58.40
2018-03-19T05:15:13.740Z,57.87
2018-03-19T05:16:13.661Z,56.87
2018-03-19T05:17:13.733Z,57.10
2018-03-19T05:18:13.751Z,57.23
2018-03-19T05:19:13.625Z,57.66
2018-03-19T05:20:13.733Z,56.44
2018-03-19T05:21:13.654Z,56.41
2018-03-19T05:22:13.695Z,56.24
2018-03-19T05:23:13.694Z,56.57
2018-03-19T05:24:13.751Z,56.31
2018-03-19T05:25:13.632Z,56.41
2018-03-19T05:26:13.663Z,57.00
2018-03-19T05:27:13.737Z,57.71
2018-03-19T05:28:13.661Z,57.89
2018-03-19T05:29:13.742Z,58.46
2018-03-19T05:30:13.742Z,58.35
2018-03-19T05:31:13.720Z,58.17
2018-03-19T05:32:13.753Z,57.61
2018-03-19T05:33:13.706Z,57.82
2018-03-19T05:34:13.750Z,56.82
2018-03-19T05:35:13.656Z,56.03
2018-03-19T05:36:13.642Z,56.16
2018-03-19T05:37:13.723Z,57.43
2018-03-19T05:38:13.638Z,57.59
2018-03-19T05:39:13.632Z,57.99
2018-03-19T05:40:13.706Z,57.95
2018-03-19T05:41:13.747Z,58.84
2018-03-19T05:42:13.704Z,59.00
2018-03-19T05:43:13.641Z,59.45
2018-03-19T05:44:13.735Z,59.97
2018-03-19T05:45:13.644Z,58.84
2018-03-19T05:46:13.666Z,58.46
2018-03-19T05:47:13.727Z,58.74
2018-03-19T05:48:13.639Z,59.20
2018-03-19T05:49:13.643Z,58.81
2018-03-19T05:50:13.754Z,57.92
2018-03-19T05:51:13.733Z,56.90
2018-03-19T05:52:13.756Z,57.79
2018-03-19T05:53:13.675Z,58.81
2018-03-19T05:54:13.711Z,59.68
2018-03-19T05:55:13.680Z,57.21
2018-03-19T05:56:13.760Z,58.61
2018-03-19T05:57:13.702Z,59.63
2018-03-19T05:58:13.733Z,60.45
2018-03-19T05:59:13.645Z,61.89
2018-03-19T06:00:13.742Z,61.35
2018-03-19T06:01:13.743Z,60.94
2018-03-19T06:02:13.639Z,62.30
2018-03-19T06:03:13.743Z,61.97
2018-03-19T06:04:13.743Z,61.63
2018-03-19T06:05:13.723Z,62.25
2018-03-19T06:06:13.743Z,62.53
2018-03-19T06:07:13.659Z,62.33
2018-03-19T06:08:13.709Z,62.48
2018-03-19T06:09:13.770Z,62.04
2018-03-19T06:10:13.710Z,61.76
2018-03-19T06:11:13.675Z,61.56
2018-03-19T06:12:13.764Z,62.02
2018-03-19T06:13:13.649Z,62.27
2018-03-19T06:14:13.678Z,61.30
2018-03-19T06:15:13.719Z,61.56
2018-03-19T06:16:13.655Z,62.02
2018-03-19T06:17:13.664Z,61.43
2018-03-19T06:18:13.755Z,62.92
2018-03-19T06:19:13.729Z,64.00
2018-03-19T06:20:13.716Z,63.69
2018-03-19T06:21:13.752Z,63.13
2018-03-19T06:22:13.718Z,62.97
2018-03-19T06:23:13.747Z,63.26
2018-03-19T06:24:13.726Z,63.28
2018-03-19T06:25:13.773Z,63.69
2018-03-19T06:26:13.661Z,62.66
2018-03-19T06:27:13.728Z,62.77
2018-03-19T06:28:13.775Z,62.94
2018-03-19T06:29:13.748Z,62.27
2018-03-19T06:30:13.663Z,62.27
2018-03-19T06:31:13.755Z,62.38
2018-03-19T06:32:13.693Z,62.84
2018-03-19T06:33:13.688Z,61.63
2018-03-19T06:34:13.754Z,60.99
2018-03-19T06:35:13.739Z,60.66
2018-03-19T06:36:13.702Z,60.48
2018-03-19T06:37:13.701Z,60.05
2018-03-19T06:38:13.779Z,59.35
2018-03-19T06:39:13.728Z,58.10
2018-03-19T06:40:13.786Z,58.20
2018-03-19T06:41:13.754Z,58.38
2018-03-19T06:42:13.703Z,58.64
2018-03-19T06:43:13.678Z,58.66
2018-03-19T06:44:13.790Z,59.58
2018-03-19T06:45:13.762Z,59.71
2018-03-19T06:46:13.814Z,60.01
2018-03-19T06:47:13.765Z,59.78
2018-03-19T06:48:13.759Z,59.37
2018-03-19T06:49:13.706Z,56.41
2018-03-19T06:50:13.671Z,56.93
2018-03-19T06:51:13.769Z,55.83
2018-03-19T06:52:13.769Z,55.57
2018-03-19T06:53:13.747Z,56.13
2018-03-19T06:54:13.749Z,53.11
2018-03-19T06:55:13.703Z,54.12
2018-03-19T06:56:13.703Z,55.37
2018-03-19T06:57:13.677Z,51.99
2018-03-19T06:58:13.741Z,53.06
2018-03-19T06:59:13.755Z,51.71
2018-03-19T07:00:13.690Z,51.26
2018-03-19T07:01:13.775Z,50.20
2018-03-19T07:02:13.794Z,50.48
2018-03-19T07:03:13.753Z,50.35
2018-03-19T07:04:13.803Z,51.08
2018-03-19T07:05:13.687Z,49.32
2018-03-19T07:06:13.747Z,49.34
2018-03-19T07:07:13.744Z,49.37
2018-03-19T07:08:13.722Z,49.60
2018-03-19T07:09:13.714Z,48.06
2018-03-19T07:10:13.800Z,48.23
2018-03-19T07:11:13.800Z,48.36
2018-03-19T07:12:13.727Z,48.74
2018-03-19T07:13:13.803Z,48.36
2018-03-19T07:14:13.748Z,48.08
2018-03-19T07:15:13.693Z,48.69
2018-03-19T07:16:13.752Z,46.68
2018-03-19T07:17:13.808Z,47.06
2018-03-19T07:18:13.812Z,44.95
2018-03-19T07:19:13.786Z,46.75
2018-03-19T07:20:13.753Z,45.55
2018-03-19T07:21:13.815Z,46.05
2018-03-19T07:22:13.691Z,45.62
2018-03-19T07:23:13.695Z,45.12
2018-03-19T07:24:13.724Z,45.05
2018-03-19T07:25:13.809Z,45.02
2018-03-19T07:26:13.699Z,44.55
2018-03-19T07:27:13.782Z,43.97
2018-03-19T07:28:13.697Z,45.00
2018-03-19T07:29:13.764Z,44.72
2018-03-19T07:30:13.731Z,45.12
2018-03-19T07:31:13.756Z,43.85
2018-03-19T07:32:13.822Z,45.30
2018-03-19T07:33:13.733Z,44.85
2018-03-19T07:34:13.770Z,45.45
2018-03-19T07:35:13.765Z,43.55
2018-03-19T07:36:13.816Z,43.20
2018-03-19T07:37:13.796Z,43.57
2018-03-19T07:38:13.733Z,43.92
2018-03-19T07:39:13.818Z,43.25
2018-03-19T07:40:13.711Z,43.22
2018-03-19T07:41:13.715Z,44.30
2018-03-19T07:42:13.764Z,43.80
2018-03-19T07:43:13.793Z,43.25
2018-03-19T07:44:13.821Z,41.93
2018-03-19T07:45:13.828Z,42.53
2018-03-19T07:46:13.778Z,42.92
2018-03-19T07:47:13.733Z,42.92
2018-03-19T07:48:13.824Z,44.70
2018-03-19T07:49:13.825Z,42.60
2018-03-19T07:50:13.805Z,43.30
2018-03-19T07:51:13.825Z,42.85
2018-03-19T07:52:13.836Z,43.67
2018-03-19T07:53:13.768Z,42.48
2018-03-19T07:54:13.774Z,43.42
2018-03-19T07:55:13.723Z,42.62
2018-03-19T07:56:13.833Z,42.45
2018-03-19T07:57:13.815Z,41.73
2018-03-19T07:58:13.742Z,42.48
2018-03-19T07:59:13.779Z,42.70
2018-03-19T08:00:13.740Z,43.10
2018-03-19T08:01:13.717Z,42.50
2018-03-19T08:02:13.784Z,41.15
2018-03-19T08:03:13.719Z,42.92
2018-03-19T08:04:13.734Z,41.98
2018-03-19T08:05:13.832Z,42.78
2018-03-19T08:06:13.793Z,41.85
2018-03-19T08:07:13.809Z,41.31
2018-03-19T08:08:13.782Z,41.48
2018-03-19T08:09:13.747Z,42.12
2018-03-19T08:10:13.782Z,41.21
2018-03-19T08:11:13.838Z,42.10
2018-03-19T08:12:13.783Z,41.73
2018-03-19T08:13:13.788Z,41.85
2018-03-19T08:14:13.841Z,41.63
2018-03-19T08:15:13.845Z,40.96
2018-03-19T08:16:13.735Z,41.35
2018-03-19T08:17:13.753Z,40.61
2018-03-19T08:18:13.789Z,40.83
2018-03-19T08:19:13.852Z,41.31
2018-03-19T08:20:13.809Z,40.59
2018-03-19T08:21:13.849Z,41.48
2018-03-19T08:22:13.853Z,41.58
2018-03-19T08:23:13.816Z,42.18
2018-03-19T08:24:13.883Z,42.18
2018-03-19T08:25:13.732Z,42.83
2018-03-19T08:26:13.819Z,41.48
2018-03-19T08:27:13.765Z,41.26
2018-03-19T08:28:13.756Z,40.68
2018-03-19T08:29:13.855Z,41.01
2018-03-19T08:30:13.856Z,42.67
2018-03-19T08:31:13.744Z,43.33
2018-03-19T08:32:13.856Z,43.08
2018-03-19T08:33:13.760Z,40.59
2018-03-19T08:34:13.850Z,40.46
2018-03-19T08:35:13.745Z,41.38
2018-03-19T08:36:13.736Z,40.56
2018-03-19T08:37:13.747Z,40.21
2018-03-19T08:38:13.734Z,42.78
2018-03-19T08:39:13.765Z,40.54
2018-03-19T08:40:13.736Z,40.24
2018-03-19T08:41:13.817Z,40.81
2018-03-19T08:42:13.750Z,41.73
2018-03-19T08:43:13.807Z,42.72
2018-03-19T08:44:13.835Z,42.60
2018-03-19T08:45:13.858Z,42.30
2018-03-19T08:46:13.800Z,41.40
2018-03-19T08:47:13.746Z,40.71
2018-03-19T08:48:13.811Z,40.54
2018-03-19T08:49:13.752Z,42.08
2018-03-19T08:50:13.865Z,42.12
2018-03-19T08:51:13.775Z,40.43
2018-03-19T08:52:13.744Z,39.79
2018-03-19T08:53:13.858Z,40.51
2018-03-19T08:54:13.808Z,41.80
2018-03-19T08:55:13.749Z,39.40
2018-03-19T08:56:13.781Z,39.69
2018-03-19T08:57:13.782Z,40.91
2018-03-19T08:58:13.818Z,41.06
2018-03-19T08:59:13.814Z,40.76
2018-03-19T09:00:13.867Z,41.10
2018-03-19T09:01:13.755Z,41.35
2018-03-19T09:02:13.782Z,41.10
2018-03-19T09:03:13.757Z,39.42
2018-03-19T09:04:13.876Z,39.22
2018-03-19T09:05:13.871Z,40.16
2018-03-19T09:06:13.749Z,39.42
2018-03-19T09:07:13.900Z,39.24
2018-03-19T09:08:13.839Z,40.51
2018-03-19T09:09:13.870Z,39.74
2018-03-19T09:10:13.767Z,37.49
2018-03-19T09:11:13.843Z,38.80
2018-03-19T09:12:13.872Z,39.05
2018-03-19T09:13:13.822Z,38.15
2018-03-19T09:14:13.885Z,38.63
2018-03-19T09:15:13.882Z,39.64
2018-03-19T09:16:13.772Z,38.92
2018-03-19T09:17:13.796Z,39.12
2018-03-19T09:18:13.831Z,38.23
2018-03-19T09:19:13.878Z,37.49
2018-03-19T09:20:13.821Z,38.72
2018-03-19T09:21:13.854Z,39.71
2018-03-19T09:22:13.877Z,39.37
2018-03-19T09:23:13.798Z,39.12
2018-03-19T09:24:13.837Z,38.50
2018-03-19T09:25:13.920Z,37.16
2018-03-19T09:26:13.831Z,38.08
2018-03-19T09:27:13.841Z,38.08
2018-03-19T09:28:13.861Z,38.77
2018-03-19T09:29:13.858Z,36.00
2018-03-19T09:30:13.800Z,36.97
2018-03-19T09:31:13.786Z,37.29
2018-03-19T09:32:13.891Z,36.94
2018-03-19T09:33:13.860Z,38.30
2018-03-19T09:34:13.773Z,37.51
2018-03-19T09:35:13.820Z,37.86
2018-03-19T09:36:13.782Z,37.53
2018-03-19T09:37:13.832Z,39.05
2018-03-19T09:38:13.784Z,39.52
2018-03-19T09:39:13.774Z,39.12
2018-03-19T09:40:13.846Z,39.22
2018-03-19T09:41:13.848Z,38.70
2018-03-19T09:42:13.869Z,38.08
2018-03-19T09:43:13.851Z,37.76
2018-03-19T09:44:13.790Z,37.58
2018-03-19T09:45:13.848Z,39.64
2018-03-19T09:46:13.778Z,39.02
2018-03-19T09:47:13.779Z,37.51
2018-03-19T09:48:13.923Z,37.81
2018-03-19T09:49:13.867Z,38.13
2018-03-19T09:50:13.848Z,37.81
2018-03-19T09:51:13.813Z,37.76
2018-03-19T09:52:13.901Z,38.28
2018-03-19T09:53:13.781Z,37.49
2018-03-19T09:54:13.813Z,36.82
2018-03-19T09:55:13.878Z,37.29
2018-03-19T09:56:13.895Z,36.45
2018-03-19T09:57:13.796Z,37.29
2018-03-19T09:58:13.787Z,37.81
2018-03-19T09:59:13.856Z,37.71
2018-03-19T10:00:13.866Z,36.25
2018-03-19T10:01:13.910Z,38.97
2018-03-19T10:02:13.791Z,38.82
2018-03-19T10:03:13.866Z,36.50
2018-03-19T10:04:13.823Z,36.28
2018-03-19T10:05:13.886Z,38.21
2018-03-19T10:06:13.883Z,37.29
2018-03-19T10:07:13.908Z,36.13
2018-03-19T10:08:13.825Z,36.87
2018-03-19T10:09:13.881Z,38.35
2018-03-19T10:10:13.819Z,38.18
2018-03-19T10:11:13.861Z,35.81
2018-03-19T10:12:13.908Z,37.14
2018-03-19T10:13:13.805Z,39.89
2018-03-19T10:14:13.825Z,36.25
2018-03-19T10:15:13.810Z,37.16
2018-03-19T10:16:13.892Z,35.24
2018-03-19T10:17:13.912Z,36.03
2018-03-19T10:18:13.923Z,35.24
2018-03-19T10:19:13.920Z,37.93
2018-03-19T10:20:13.884Z,36.97
2018-03-19T10:21:13.921Z,35.76
2018-03-19T10:22:13.801Z,36.23
2018-03-19T10:23:13.862Z,35.34
2018-03-19T10:24:13.828Z,36.15
2018-03-19T10:25:13.835Z,38.94
2018-03-19T10:26:13.834Z,39.59
2018-03-19T10:27:13.896Z,38.63
2018-03-19T10:28:13.950Z,34.43
2018-03-19T10:29:13.869Z,37.46
2018-03-19T10:30:13.929Z,34.43
2018-03-19T10:31:13.867Z,35.86
2018-03-19T10:32:13.810Z,35.68
2018-03-19T10:33:13.923Z,33.74
2018-03-19T10:34:13.928Z,37.06
2018-03-19T10:35:13.929Z,36.99
2018-03-19T10:36:13.867Z,36.13
2018-03-19T10:37:13.879Z,34.60
2018-03-19T10:38:13.907Z,36.00
2018-03-19T10:39:13.923Z,34.67
2018-03-19T10:40:13.909Z,34.85
2018-03-19T10:41:13.844Z,35.36
2018-03-19T10:42:13.885Z,38.08
2018-03-19T10:43:13.898Z,38.82
2018-03-19T10:44:13.930Z,36.45
2018-03-19T10:45:13.813Z,34.82
2018-03-19T10:46:13.807Z,32.96
2018-03-19T10:47:13.903Z,33.42
2018-03-19T10:48:13.882Z,34.82
2018-03-19T10:49:13.820Z,34.92
2018-03-19T10:50:13.828Z,34.21
2018-03-19T10:51:13.850Z,35.88
2018-03-19T10:52:13.935Z,37.09
2018-03-19T10:53:13.831Z,37.22
2018-03-19T10:54:13.816Z,36.20
2018-03-19T10:55:13.895Z,36.62
2018-03-19T10:56:13.913Z,36.97
2018-03-19T10:57:13.885Z,36.00
2018-03-19T10:58:13.939Z,35.39
2018-03-19T10:59:13.937Z,36.64
2018-03-19T11:00:13.898Z,34.60
2018-03-19T11:01:13.896Z,34.09
2018-03-19T11:02:13.945Z,37.78
2018-03-19T11:03:13.948Z,36.42
2018-03-19T11:04:13.941Z,36.37
2018-03-19T11:05:13.949Z,34.45
2018-03-19T11:06:13.942Z,34.23
2018-03-19T11:07:13.839Z,35.81
2018-03-19T11:08:13.917Z,38.00
2018-03-19T11:09:13.832Z,36.57
2018-03-19T11:10:13.925Z,34.18
2018-03-19T11:11:13.943Z,35.19
2018-03-19T11:12:14.011Z,34.45
2018-03-19T11:13:13.842Z,35.76
2018-03-19T11:14:13.896Z,38.18
2018-03-19T11:15:13.847Z,34.01
2018-03-19T11:16:13.930Z,33.64
2018-03-19T11:17:13.897Z,34.06
2018-03-19T11:18:13.891Z,34.45
2018-03-19T11:19:13.906Z,35.21
2018-03-19T11:20:13.837Z,35.88
2018-03-19T11:21:13.960Z,34.95
2018-03-19T11:22:13.844Z,34.52
2018-03-19T11:23:13.849Z,35.49
2018-03-19T11:24:13.960Z,34.87
2018-03-19T11:25:13.871Z,37.68
2018-03-19T11:26:13.902Z,34.57
2018-03-19T11:27:13.957Z,35.17
2018-03-19T11:28:13.906Z,35.90
2018-03-19T11:29:13.963Z,35.39
2018-03-19T11:30:13.940Z,35.02
2018-03-19T11:31:13.875Z,34.35
2018-03-19T11:32:13.900Z,35.56
2018-03-19T11:33:13.941Z,35.73
2018-03-19T11:34:13.909Z,35.39
2018-03-19T11:35:13.904Z,36.45
2018-03-19T11:36:13.902Z,36.92
2018-03-19T11:37:13.907Z,37.34
2018-03-19T11:38:13.856Z,38.30
2018-03-19T11:39:13.883Z,37.63
2018-03-19T11:40:13.952Z,38.08
2018-03-19T11:41:13.970Z,37.06
2018-03-19T11:42:13.911Z,34.97
2018-03-19T11:43:13.851Z,38.97
2018-03-19T11:44:13.973Z,36.99
2018-03-19T11:45:13.966Z,38.90
2018-03-19T11:46:13.849Z,36.00
2018-03-19T11:47:13.921Z,36.57
2018-03-19T11:48:13.854Z,36.35
2018-03-19T11:49:13.887Z,35.26
2018-03-19T11:50:13.972Z,36.35
2018-03-19T11:51:13.977Z,39.79
2018-03-19T11:52:13.866Z,35.95
2018-03-19T11:53:13.881Z,37.74
2018-03-19T11:54:13.924Z,34.87
2018-03-19T11:55:13.978Z,34.80
2018-03-19T11:56:13.868Z,36.05
2018-03-19T11:57:13.873Z,35.31
2018-03-19T11:58:13.981Z,37.44
2018-03-19T11:59:13.924Z,37.53
2018-03-19T12:00:13.976Z,39.89
2018-03-19T12:01:13.921Z,37.91
2018-03-19T12:02:13.977Z,36.72
2018-03-19T12:03:13.894Z,37.68
2018-03-19T12:04:13.872Z,37.98
2018-03-19T12:05:13.948Z,36.75
2018-03-19T12:06:13.869Z,35.09
2018-03-19T12:07:13.979Z,35.93
2018-03-19T12:08:13.860Z,33.18
2018-03-19T12:09:13.865Z,32.83
2018-03-19T12:10:13.989Z,34.06
2018-03-19T12:11:13.970Z,33.54
2018-03-19T12:12:13.877Z,33.44
2018-03-19T12:13:13.965Z,34.52
2018-03-19T12:14:13.937Z,33.18
2018-03-19T12:15:13.934Z,33.03
2018-03-19T12:16:13.990Z,36.13
2018-03-19T12:17:13.943Z,35.29
2018-03-19T12:18:14.034Z,36.00
2018-03-19T12:19:13.942Z,35.51
2018-03-19T12:20:13.871Z,37.49
2018-03-19T12:21:13.949Z,35.14
2018-03-19T12:22:13.978Z,36.52
2018-03-19T12:23:13.912Z,36.28
2018-03-19T12:24:13.947Z,34.50
2018-03-19T12:25:13.877Z,34.06
2018-03-19T12:26:13.967Z,32.83
2018-03-19T12:27:13.877Z,31.85
2018-03-19T12:28:13.888Z,36.08
2018-03-19T12:29:13.993Z,36.52
2018-03-19T12:30:13.993Z,32.96
2018-03-19T12:31:13.898Z,33.84
2018-03-19T12:32:14.003Z,33.49
2018-03-19T12:33:14.008Z,33.89
2018-03-19T12:34:13.975Z,36.67
2018-03-19T12:35:13.995Z,36.25
2018-03-19T12:36:13.908Z,36.55
2018-03-19T12:37:13.996Z,34.55
2018-03-19T12:38:13.980Z,38.85
2018-03-19T12:39:13.912Z,31.68
2018-03-19T12:40:13.898Z,36.33
2018-03-19T12:41:13.919Z,33.64
2018-03-19T12:42:13.923Z,33.44
2018-03-19T12:43:13.975Z,34.35
2018-03-19T12:44:13.885Z,32.49
2018-03-19T12:45:13.981Z,31.78
2018-03-19T12:46:13.957Z,35.56
2018-03-19T12:47:13.950Z,34.85
2018-03-19T12:48:13.891Z,31.24
2018-03-19T12:49:13.924Z,37.49
2018-03-19T12:50:13.963Z,33.66
2018-03-19T12:51:13.899Z,35.88
2018-03-19T12:52:13.904Z,33.57